Time;durP1;ratioP1;P1;durP2;ratioP2;P2;SDS_P1;SDS_P2;PMS_P1;PMS_P2;Temp;Humidity;BMP_temperature;BMP_pressure;BME280_temperature;BME280_humidity;BME280_pressure;Samples;Min_cycle;Max_cycle;Signal;HPM_P1;HPM_P2
2022/08/10 00:08:31;;;;;;;1.70;1.30;;;;;;;17.09;65.66;98183.31;18239332;32;20434;-62
2022/08/10 00:18:33;;;;;;;1.65;1.40;;;;;;;16.89;65.97;98188.00;18238403;32;20374;-62
2022/08/10 00:28:37;;;;;;;2.62;1.25;;;;;;;16.70;67.02;98184.47;18238356;32;20397;-62
2022/08/10 00:38:41;;;;;;;2.25;1.70;;;;;;;16.50;67.69;98174.66;18237667;32;20104;-63
2022/08/10 00:48:43;;;;;;;1.85;1.65;;;;;;;16.29;68.39;98166.78;18235962;32;20404;-63
2022/08/10 00:58:54;;;;;;;2.45;1.55;;;;;;;16.12;68.97;98171.97;18294560;32;20065;-63
2022/08/10 01:08:56;;;;;;;3.63;1.43;;;;;;;15.90;69.61;98168.69;18299652;32;20438;-62
2022/08/10 01:19:11;;;;;;;3.58;1.70;;;;;;;15.76;70.28;98154.13;18298541;32;20066;-63
2022/08/10 01:29:45;;;;;;;1.87;1.50;;;;;;;15.59;70.98;98147.25;18298100;32;20096;-63
2022/08/10 01:39:54;;;;;;;1.60;1.50;;;;;;;15.38;71.59;98145.84;18283759;32;20058;-62
2022/08/10 01:50:02;;;;;;;1.67;1.50;;;;;;;15.27;72.64;98145.16;18297167;32;20066;-62
2022/08/10 02:00:05;;;;;;;1.60;1.30;;;;;;;15.08;73.77;98139.63;18296350;32;20069;-62
2022/08/10 02:10:11;;;;;;;2.13;1.47;;;;;;;14.93;74.55;98139.78;18296018;32;20051;-62
2022/08/10 02:20:22;;;;;;;1.20;1.10;;;;;;;14.80;75.26;98147.50;18295804;32;20100;-62
2022/08/10 02:30:27;;;;;;;1.73;1.33;;;;;;;14.66;75.88;98150.09;18295507;32;20077;-62
2022/08/10 02:40:34;;;;;;;2.33;1.67;;;;;;;14.51;76.62;98156.44;18294814;32;20058;-62
2022/08/10 02:51:04;;;;;;;3.00;1.70;;;;;;;14.37;77.12;98158.16;18294488;32;20054;-62
2022/08/10 03:01:16;;;;;;;2.87;1.70;;;;;;;14.18;77.82;98156.13;18280759;32;20405;-62
2022/08/10 03:11:26;;;;;;;1.50;1.40;;;;;;;14.05;78.82;98151.28;18300628;32;20062;-62
2022/08/10 03:21:50;;;;;;;2.97;1.37;;;;;;;13.90;79.30;98147.56;18305072;32;20076;-62
2022/08/10 03:31:54;;;;;;;1.73;1.60;;;;;;;13.75;79.61;98136.75;18303885;32;20054;-62
2022/08/10 03:42:00;;;;;;;1.75;1.30;;;;;;;13.67;80.18;98142.78;18290098;32;20429;-62
2022/08/10 03:52:05;;;;;;;1.80;1.60;;;;;;;13.55;80.78;98141.22;18302924;32;20113;-62
2022/08/10 04:02:08;;;;;;;1.60;1.50;;;;;;;13.41;81.38;98140.16;18302498;32;20066;-64
2022/08/10 04:12:30;;;;;;;1.53;1.43;;;;;;;13.31;82.08;98138.25;18302172;32;20383;-64
2022/08/10 04:22:35;;;;;;;1.93;1.57;;;;;;;13.25;82.71;98152.12;18301227;32;20091;-64
2022/08/10 04:32:40;;;;;;;2.03;1.60;;;;;;;13.13;83.10;98160.56;18301124;32;20073;-64
2022/08/10 04:42:43;;;;;;;1.58;1.30;;;;;;;13.12;84.65;98169.81;18300677;32;20058;-64
2022/08/10 04:52:46;;;;;;;1.60;1.50;;;;;;;13.09;85.76;98178.50;18285531;32;20058;-64
2022/08/10 05:02:48;;;;;;;2.90;2.00;;;;;;;13.19;85.69;98176.56;18273098;32;20109;-64
2022/08/10 05:12:51;;;;;;;3.07;1.73;;;;;;;13.41;84.76;98180.09;18285440;32;20477;-64
2022/08/10 05:22:53;;;;;;;1.77;1.67;;;;;;;13.66;83.98;98199.03;18298093;32;20403;-65
2022/08/10 05:32:56;;;;;;;3.07;1.87;;;;;;;13.94;83.85;98201.38;18297360;32;20117;-64
2022/08/10 05:43:05;;;;;;;2.20;1.67;;;;;;;14.37;83.27;98201.69;18297636;32;20058;-64
2022/08/10 05:53:07;;;;;;;2.57;1.70;;;;;;;14.88;81.89;98209.53;18283238;32;20058;-64
2022/08/10 06:03:35;;;;;;;2.30;1.70;;;;;;;15.38;79.76;98216.69;18282438;32;20058;-65
2022/08/10 06:24:22;;;;;;;1.85;1.45;;;;;;;16.51;72.71;98230.91;18295953;32;20054;-62
2022/08/10 06:34:37;;;;;;;;;;;;;;;17.02;70.87;98229.31;18283723;32;20054;-62
2022/08/10 06:45:12;;;;;;;2.10;1.50;;;;;;;17.54;69.56;98235.53;18281270;32;19961;-62
2022/08/10 06:55:26;;;;;;;4.63;1.80;;;;;;;18.15;67.20;98224.50;18294142;32;20076;-62
2022/08/10 07:05:54;;;;;;;5.22;1.92;;;;;;;18.69;64.09;98243.84;18293712;32;20076;-62
2022/08/10 07:16:00;;;;;;;2.83;1.85;;;;;;;19.06;62.20;98228.22;18293528;32;20382;-62
2022/08/10 07:26:06;;;;;;;3.62;1.73;;;;;;;19.59;60.03;98229.28;18293267;32;20445;-62
2022/08/10 07:36:11;;;;;;;2.67;1.70;;;;;;;20.08;58.41;98221.09;18293167;32;20061;-62
2022/08/10 07:46:22;;;;;;;2.95;1.58;;;;;;;20.75;56.72;98215.56;18279613;32;20355;-62
2022/08/10 07:56:30;;;;;;;3.78;2.00;;;;;;;21.42;55.81;98219.66;18284099;32;20050;-62
2022/08/10 08:06:54;;;;;;;2.10;1.48;;;;;;;22.00;52.58;98217.31;18302058;32;20450;-63
2022/08/10 08:17:00;;;;;;;2.72;1.60;;;;;;;22.66;50.92;98206.84;18301864;32;20076;-63
2022/08/10 08:27:20;;;;;;;4.35;1.70;;;;;;;23.16;49.32;98210.66;18301315;32;20450;-63
2022/08/10 08:37:36;;;;;;;3.90;2.05;;;;;;;23.72;44.85;98221.19;18300809;32;20096;-63
2022/08/10 08:48:20;;;;;;;3.85;1.70;;;;;;;23.99;43.47;98205.94;18300301;32;20509;-63
2022/08/10 08:58:45;;;;;;;5.10;1.80;;;;;;;24.39;44.73;98209.13;18299686;32;20327;-63
2022/08/10 09:09:32;;;;;;;4.43;2.00;;;;;;;24.78;41.55;98209.50;18298073;32;20062;-64
2022/08/10 09:19:43;;;;;;;3.00;1.92;;;;;;;25.29;42.22;98204.19;18284118;32;20076;-63
2022/08/10 09:29:55;;;;;;;;;;;;;;;25.79;42.02;98201.94;18284039;32;20066;-63
2022/08/10 09:40:10;;;;;;;2.05;1.40;;;;;;;26.26;41.68;98189.19;18297887;32;19949;-63
2022/08/10 09:51:00;;;;;;;4.15;1.80;;;;;;;26.64;40.12;98182.06;18296760;32;20062;-63
2022/08/10 10:01:42;;;;;;;2.22;1.65;;;;;;;26.83;37.12;98184.06;18296304;32;20059;-63
2022/08/10 10:12:26;;;;;;;3.47;1.48;;;;;;;26.99;36.85;98170.09;18296329;32;20066;-63
2022/08/10 10:22:40;;;;;;;6.22;1.58;;;;;;;27.41;38.11;98167.69;18269343;32;20076;-63
2022/08/10 10:32:57;;;;;;;7.03;1.50;;;;;;;27.78;36.19;98162.34;18282307;32;20062;-63
2022/08/10 10:43:38;;;;;;;2.50;1.45;;;;;;;28.04;37.33;98169.94;18295001;32;20070;-63
2022/08/10 10:53:51;;;;;;;2.40;1.40;;;;;;;28.68;36.30;98163.66;18294019;32;20508;-63
2022/08/10 11:04:05;;;;;;;4.90;1.35;;;;;;;29.34;34.32;98149.25;18294235;32;20121;-62
2022/08/10 11:14:36;;;;;;;3.25;1.05;;;;;;;29.70;32.76;98149.53;18293706;32;20466;-63
2022/08/10 11:25:13;;;;;;;2.97;1.17;;;;;;;29.86;29.82;98142.91;18291801;32;20158;-63
2022/08/10 11:35:29;;;;;;;2.58;1.05;;;;;;;30.31;34.90;98142.78;18302773;32;20067;-63
2022/08/10 11:45:45;;;;;;;4.07;1.23;;;;;;;30.78;31.63;98132.66;18289228;32;20070;-63
2022/08/10 11:55:59;;;;;;;1.02;0.93;;;;;;;31.11;30.92;98138.31;18302921;32;20442;-62
2022/08/10 12:06:20;;;;;;;2.83;1.20;;;;;;;31.40;29.99;98139.94;18277399;32;20058;-63
2022/08/10 12:17:07;;;;;;;1.40;1.00;;;;;;;31.64;30.98;98131.97;18301658;32;20092;-63
2022/08/10 12:27:40;;;;;;;1.75;1.23;;;;;;;31.70;30.18;98118.41;18290095;32;20077;-62
2022/08/10 12:38:09;;;;;;;1.10;1.00;;;;;;;32.30;29.23;98113.88;18300905;32;20054;-63
2022/08/10 12:48:55;;;;;;;1.75;1.17;;;;;;;32.41;27.33;98117.44;18300117;32;20442;-63
2022/08/10 12:59:05;;;;;;;3.35;0.98;;;;;;;32.58;28.27;98109.38;18233938;32;20058;-62
2022/08/10 13:09:23;;;;;;;1.95;1.35;;;;;;;33.03;26.90;98100.34;18224191;32;20067;-62
2022/08/10 13:19:36;;;;;;;4.15;0.95;;;;;;;33.61;31.48;98090.28;18235191;32;20062;-63
2022/08/10 13:30:05;;;;;;;2.62;1.17;;;;;;;33.93;25.68;98086.41;18235561;32;20480;-62
2022/08/10 13:40:18;;;;;;;1.25;1.02;;;;;;;33.86;23.78;98071.63;18233917;32;20077;-63
2022/08/10 13:50:29;;;;;;;1.55;1.02;;;;;;;34.39;27.31;98064.63;18238374;32;20064;-63
2022/08/10 14:00:42;;;;;;;1.25;0.98;;;;;;;34.59;26.63;98052.72;18296806;32;20174;-62
2022/08/10 14:10:53;;;;;;;3.15;0.93;;;;;;;34.59;25.76;98044.28;18296546;32;20423;-62
2022/08/10 14:21:15;;;;;;;3.50;1.10;;;;;;;34.91;22.45;98040.25;18295757;32;20102;-62
2022/08/10 14:31:24;;;;;;;3.65;1.25;;;;;;;34.99;23.02;98027.69;18295467;32;20077;-62
2022/08/10 14:41:31;;;;;;;1.40;0.80;;;;;;;34.69;23.15;98023.69;18268649;32;20054;-62
2022/08/10 14:52:02;;;;;;;0.95;0.88;;;;;;;35.30;22.50;98007.88;18272850;32;20080;-62
2022/08/10 15:02:10;;;;;;;2.85;1.15;;;;;;;34.94;24.82;98003.66;18281834;32;20046;-62
2022/08/10 15:12:39;;;;;;;1.50;0.90;;;;;;;33.91;23.70;98001.06;18291107;32;20457;-62
2022/08/10 15:23:08;;;;;;;3.37;0.93;;;;;;;32.49;24.02;97988.66;18290541;32;20500;-62
2022/08/10 15:44:07;;;;;;;1.15;0.75;;;;;;;30.76;26.01;97968.31;18303759;32;20081;-62
2022/08/10 15:54:15;;;;;;;1.95;0.95;;;;;;;30.50;27.04;97955.53;18302836;32;20138;-62
2022/08/10 16:04:47;;;;;;;1.30;0.90;;;;;;;30.11;27.47;97955.44;18302713;32;20071;-62
2022/08/10 16:14:53;;;;;;;3.15;0.95;;;;;;;29.64;28.01;97944.88;18288448;32;20073;-62
2022/08/10 16:24:57;;;;;;;3.47;1.00;;;;;;;29.41;27.14;97948.75;18301427;32;20066;-61
2022/08/10 16:35:05;;;;;;;0.98;0.70;;;;;;;29.14;28.40;97952.94;18287768;32;20063;-61
2022/08/10 16:45:22;;;;;;;2.20;1.10;;;;;;;29.04;26.87;97949.69;18286771;32;20053;-61
2022/08/10 16:55:31;;;;;;;2.90;1.00;;;;;;;28.68;27.03;97929.13;18300004;32;20054;-61
2022/08/10 17:05:54;;;;;;;1.35;0.90;;;;;;;28.67;28.93;97933.09;18288148;32;20070;-61
2022/08/10 17:16:15;;;;;;;4.10;1.07;;;;;;;28.20;29.07;97921.50;18298739;32;20066;-62
2022/08/10 17:26:27;;;;;;;2.45;0.68;;;;;;;27.86;27.15;97929.84;18297933;32;20150;-62
2022/08/10 17:36:41;;;;;;;1.25;0.70;;;;;;;27.61;29.91;97938.66;18284371;32;20054;-62
2022/08/10 17:46:45;;;;;;;1.37;0.70;;;;;;;27.35;29.20;97937.53;18297431;32;20070;-62
2022/08/10 17:56:54;;;;;;;3.50;1.20;;;;;;;27.15;29.91;97933.28;18283403;32;20065;-62
2022/08/10 18:07:00;;;;;;;1.23;0.73;;;;;;;26.85;29.66;97932.00;18283087;32;20070;-62
2022/08/10 18:17:09;;;;;;;1.65;0.77;;;;;;;26.60;30.05;97939.91;18282417;32;20377;-62
2022/08/10 18:27:13;;;;;;;1.80;0.80;;;;;;;26.35;32.55;97943.06;18295820;32;20125;-62
2022/08/10 18:37:21;;;;;;;1.60;0.80;;;;;;;25.68;33.67;97943.28;18295036;32;20129;-62
2022/08/10 18:47:32;;;;;;;3.25;1.02;;;;;;;25.36;33.04;97958.03;18281204;32;20121;-62
2022/08/10 18:58:00;;;;;;;1.83;0.83;;;;;;;25.03;34.49;97972.28;18294329;32;20370;-62
2022/08/10 19:08:39;;;;;;;1.80;0.95;;;;;;;24.64;35.43;97978.47;18293908;32;20121;-62
2022/08/10 19:19:18;;;;;;;1.12;0.60;;;;;;;24.19;36.21;97971.31;18293848;32;20058;-62
2022/08/10 19:29:40;;;;;;;2.10;0.90;;;;;;;23.69;38.05;97978.94;18293414;32;20073;-62
2022/08/10 19:40:33;;;;;;;1.17;0.93;;;;;;;23.12;40.71;97995.38;18279186;32;20076;-62
2022/08/10 19:51:17;;;;;;;5.78;1.08;;;;;;;22.51;42.73;97996.09;18296163;32;20054;-62
2022/08/10 20:01:19;;;;;;;1.27;0.88;;;;;;;21.97;44.44;97997.72;18295000;32;20084;-62
2022/08/10 20:11:37;;;;;;;1.53;0.90;;;;;;;21.57;45.71;98011.13;18288988;32;20113;-62
2022/08/10 20:21:58;;;;;;;2.92;0.95;;;;;;;21.23;47.53;98022.00;18275919;32;20446;-61
2022/08/10 20:32:19;;;;;;;2.50;0.80;;;;;;;20.93;47.78;98021.19;18287544;32;20046;-62
2022/08/10 20:42:34;;;;;;;1.83;1.20;;;;;;;20.75;48.42;98014.97;18287198;32;20081;-62
2022/08/10 20:52:38;;;;;;;2.92;0.98;;;;;;;20.64;49.05;98020.75;18286127;32;20113;-62
2022/08/10 21:03:11;;;;;;;0.90;0.70;;;;;;;20.42;49.62;98010.81;18285956;32;20076;-62
2022/08/10 21:13:34;;;;;;;1.83;0.73;;;;;;;20.24;50.48;98018.28;18285614;32;20101;-62
2022/08/10 21:23:45;;;;;;;2.15;0.90;;;;;;;19.96;51.01;98010.38;18285068;32;20058;-62
2022/08/10 22:59:01;;;;;;;1.42;0.70;;;;;;;17.99;57.37;98004.31;18294429;32;20054;-62
2022/08/10 23:09:07;;;;;;;1.75;1.05;;;;;;;17.81;57.84;97992.41;18280599;32;20480;-62
2022/08/10 23:29:49;;;;;;;0.85;0.75;;;;;;;17.43;59.11;97997.06;18300835;32;20092;-62
2022/08/10 23:40:14;;;;;;;1.25;0.60;;;;;;;17.26;60.64;97994.94;18303789;32;20093;-62
2022/08/10 23:50:18;;;;;;;1.73;0.82;;;;;;;17.05;60.96;97997.31;18290086;32;20062;-62
